Sunray, Texas
Current Conditions -  °F | °C
As of 10:15 PM on Wednesday 22 Oct 2014 (Local Time) from KDUX Reporting Station
Haze Haze  
Wind Chill: 59°   Ceiling: Unl
Heat Index: 59°   Visibility: 5mi
Dew Point: 57°   Wind: 10mph
Humidity: 95%   Direction: 170°S
Pressure: 30.1"   Gusts: NA
Location:  36.02°N, 101.82°W
Report Text: KDUX 230315Z AUTO 17009KT 5SM BR CLR 15/14 A3010 RMK AO2 T01480140
Loading
Personal Weather Stations






























Interactive Weather Map New forecast layout! Learn more

10-Day Weather Forecast

Advertisements
Track Severe Weather on mobile